createdAt,value
2023-01-19T00:00:54.592Z,3.70
2023-01-19T00:03:21.656Z,3.70
2023-01-19T00:05:48.841Z,3.70
2023-01-19T00:08:16.174Z,3.70
2023-01-19T00:10:45.275Z,3.60
2023-01-19T00:13:12.265Z,3.70
2023-01-19T00:15:39.372Z,3.60
2023-01-19T00:18:06.665Z,3.70
2023-01-19T00:20:35.616Z,3.70
2023-01-19T00:23:04.767Z,3.70
2023-01-19T00:25:33.435Z,3.70
2023-01-19T00:28:01.678Z,3.70
2023-01-19T00:30:28.995Z,3.70
2023-01-19T00:32:56.045Z,3.60
2023-01-19T00:35:23.447Z,3.60
2023-01-19T00:37:50.130Z,3.60
2023-01-19T00:40:18.418Z,3.60
2023-01-19T00:42:45.271Z,3.60
2023-01-19T00:45:15.532Z,3.60
2023-01-19T00:47:42.538Z,3.70
2023-01-19T00:50:13.491Z,3.70
2023-01-19T00:52:44.681Z,3.70
2023-01-19T00:55:13.851Z,3.70
2023-01-19T00:57:41.852Z,3.70
2023-01-19T01:00:14.366Z,3.80
2023-01-19T01:02:42.422Z,3.80
2023-01-19T01:05:10.436Z,3.80
2023-01-19T01:07:45.534Z,3.80
2023-01-19T01:10:25.021Z,3.80
2023-01-19T01:12:56.361Z,3.80
2023-01-19T01:15:26.638Z,3.80
2023-01-19T01:17:54.671Z,3.70
2023-01-19T01:20:25.537Z,3.70
2023-01-19T01:22:53.534Z,3.70
2023-01-19T01:25:25.163Z,3.60
2023-01-19T01:27:53.851Z,3.60
2023-01-19T01:30:21.306Z,3.60
2023-01-19T01:32:50.351Z,3.60
2023-01-19T01:35:18.620Z,3.60
2023-01-19T01:37:46.534Z,3.60
2023-01-19T01:40:17.354Z,3.60
2023-01-19T01:42:44.395Z,3.60
2023-01-19T01:45:30.554Z,3.60
2023-01-19T01:48:06.373Z,3.50
2023-01-19T01:50:38.747Z,3.50
2023-01-19T01:53:11.755Z,3.40
2023-01-19T01:55:43.264Z,3.30
2023-01-19T01:58:11.649Z,3.30
2023-01-19T02:00:58.276Z,3.30
2023-01-19T02:03:27.046Z,3.20
2023-01-19T02:06:02.610Z,3.20
2023-01-19T02:09:25.951Z,3.20
2023-01-19T02:12:12.118Z,3.20
2023-01-19T02:14:38.821Z,3.10
2023-01-19T02:17:07.510Z,3.10
2023-01-19T02:19:41.267Z,3.10
2023-01-19T02:22:19.027Z,3.10
2023-01-19T02:24:46.093Z,3.10
2023-01-19T02:27:13.181Z,3.20
2023-01-19T02:29:40.034Z,3.10
2023-01-19T02:32:06.893Z,3.10
2023-01-19T02:34:33.766Z,3.20
2023-01-19T02:37:11.428Z,3.30
2023-01-19T02:39:53.015Z,3.20
2023-01-19T02:42:28.665Z,3.20
2023-01-19T02:44:56.894Z,3.20
2023-01-19T02:47:24.506Z,3.20
2023-01-19T02:49:56.055Z,3.20
2023-01-19T02:52:22.770Z,3.20
2023-01-19T02:55:15.832Z,3.20
2023-01-19T02:58:02.636Z,3.30
2023-01-19T03:00:55.549Z,3.30
2023-01-19T03:03:39.623Z,3.30
2023-01-19T03:06:25.628Z,3.30
2023-01-19T03:08:52.248Z,3.40
2023-01-19T03:11:19.156Z,3.40
2023-01-19T03:14:01.748Z,3.40
2023-01-19T03:16:48.839Z,3.40
2023-01-19T03:19:28.289Z,3.40
2023-01-19T03:21:58.991Z,3.30
2023-01-19T03:24:29.471Z,3.30
2023-01-19T03:27:19.437Z,3.30
2023-01-19T03:29:51.780Z,3.30
2023-01-19T03:32:24.155Z,3.20
2023-01-19T03:34:53.451Z,3.20
2023-01-19T03:37:21.593Z,3.20
2023-01-19T03:39:50.268Z,3.20
2023-01-19T03:42:17.903Z,3.20
2023-01-19T03:44:46.350Z,3.10
2023-01-19T03:47:14.760Z,3.00
2023-01-19T03:49:44.752Z,3.00
2023-01-19T03:52:14.548Z,2.90
2023-01-19T03:54:42.526Z,2.90
2023-01-19T03:57:10.526Z,2.90
2023-01-19T03:59:37.201Z,2.80
2023-01-19T04:02:04.255Z,2.70
2023-01-19T04:04:30.997Z,2.80
2023-01-19T04:06:59.688Z,2.70
2023-01-19T04:09:27.026Z,2.70
2023-01-19T04:11:53.725Z,2.70
2023-01-19T04:14:20.397Z,2.70
2023-01-19T04:16:48.580Z,2.70
2023-01-19T04:19:15.355Z,2.70
2023-01-19T04:21:42.153Z,2.70
2023-01-19T04:24:10.751Z,2.80
2023-01-19T04:26:39.754Z,2.70
2023-01-19T04:29:08.235Z,2.80
2023-01-19T04:31:36.938Z,2.80
2023-01-19T04:34:04.318Z,2.80
2023-01-19T04:36:31.361Z,2.90
2023-01-19T04:38:59.726Z,3.00
2023-01-19T04:41:26.648Z,3.00
2023-01-19T04:43:53.360Z,3.00
2023-01-19T04:46:20.107Z,3.10
2023-01-19T04:48:46.884Z,3.00
2023-01-19T04:51:13.540Z,3.00
2023-01-19T04:53:40.242Z,3.10
2023-01-19T04:56:07.129Z,3.00
2023-01-19T04:58:33.846Z,3.10
2023-01-19T05:01:00.938Z,3.10
2023-01-19T05:03:32.205Z,3.10
2023-01-19T05:05:59.025Z,3.10
2023-01-19T05:08:25.855Z,3.10
2023-01-19T05:10:53.860Z,3.10
2023-01-19T05:13:20.631Z,3.10
2023-01-19T05:15:47.406Z,3.10
2023-01-19T05:18:45.634Z,3.20
2023-01-19T05:21:14.087Z,3.20
2023-01-19T05:23:41.365Z,3.10
2023-01-19T05:26:09.656Z,3.10
2023-01-19T05:28:38.004Z,3.10
2023-01-19T05:31:06.721Z,3.10
2023-01-19T05:33:33.591Z,3.10
2023-01-19T05:36:00.235Z,3.20
2023-01-19T05:38:34.887Z,3.20
2023-01-19T05:41:07.798Z,3.20
2023-01-19T05:43:35.216Z,3.20
2023-01-19T05:46:04.387Z,3.20
2023-01-19T05:48:31.533Z,3.20
2023-01-19T05:51:02.055Z,3.20
2023-01-19T05:53:28.992Z,3.20
2023-01-19T05:56:03.593Z,3.20
2023-01-19T05:58:31.500Z,3.20
2023-01-19T06:01:03.243Z,3.20
2023-01-19T06:03:29.973Z,3.20
2023-01-19T06:05:58.851Z,3.20
2023-01-19T06:08:25.653Z,3.30
2023-01-19T06:10:52.959Z,3.30
2023-01-19T06:13:20.814Z,3.40
2023-01-19T06:15:47.859Z,3.40
2023-01-19T06:18:17.688Z,3.50
2023-01-19T06:20:44.363Z,3.50
2023-01-19T06:23:12.490Z,3.50
2023-01-19T06:25:39.260Z,3.50
2023-01-19T06:28:05.962Z,3.50
2023-01-19T06:30:35.366Z,3.50
2023-01-19T06:33:02.512Z,3.50
2023-01-19T06:35:29.657Z,3.50
2023-01-19T06:37:56.415Z,3.50
2023-01-19T06:40:23.891Z,3.50
2023-01-19T06:42:54.503Z,3.50
2023-01-19T06:45:21.226Z,3.50
2023-01-19T06:47:48.215Z,3.60
2023-01-19T06:50:15.254Z,3.60
2023-01-19T06:52:42.686Z,3.70
2023-01-19T06:55:11.003Z,3.70
2023-01-19T06:57:38.973Z,3.70
2023-01-19T07:00:08.798Z,3.70
2023-01-19T07:02:36.067Z,3.70
2023-01-19T07:05:03.177Z,3.80
2023-01-19T07:07:31.541Z,3.80
2023-01-19T07:09:58.386Z,3.90
2023-01-19T07:12:25.054Z,4.00
2023-01-19T07:14:53.036Z,4.00
2023-01-19T07:17:20.082Z,4.10
2023-01-19T07:19:47.066Z,4.10
2023-01-19T07:22:13.859Z,4.10
2023-01-19T07:24:42.038Z,4.20
2023-01-19T07:27:08.923Z,4.30
2023-01-19T07:29:37.364Z,4.30
2023-01-19T07:32:04.811Z,4.30
2023-01-19T07:34:31.729Z,4.30
2023-01-19T07:36:59.006Z,4.30
2023-01-19T07:39:25.884Z,4.20
2023-01-19T07:41:52.553Z,4.20
2023-01-19T07:44:19.274Z,4.20
2023-01-19T07:46:45.919Z,4.20
2023-01-19T07:49:12.693Z,4.20
2023-01-19T07:51:39.844Z,4.20
2023-01-19T07:54:08.470Z,4.20
2023-01-19T07:56:35.368Z,4.20
2023-01-19T07:59:02.117Z,4.30
2023-01-19T08:01:29.832Z,4.20
2023-01-19T08:03:56.904Z,4.30
2023-01-19T08:06:30.964Z,4.30
2023-01-19T08:08:57.634Z,4.30
2023-01-19T08:11:27.860Z,4.40
2023-01-19T08:13:54.581Z,4.40
2023-01-19T08:16:22.342Z,4.40
2023-01-19T08:18:49.882Z,4.40
2023-01-19T08:21:16.890Z,4.40
2023-01-19T08:23:47.903Z,4.50
2023-01-19T08:26:37.490Z,4.50
2023-01-19T08:29:05.563Z,4.60
2023-01-19T08:31:33.942Z,4.60
2023-01-19T08:34:00.718Z,4.70
2023-01-19T08:36:27.589Z,4.80
2023-01-19T08:38:54.363Z,4.70
2023-01-19T08:41:21.111Z,4.70
2023-01-19T08:43:48.208Z,4.70
2023-01-19T08:46:17.585Z,4.70
2023-01-19T08:48:45.248Z,4.70
2023-01-19T08:51:12.895Z,4.60
2023-01-19T08:53:39.752Z,4.60
2023-01-19T08:56:12.727Z,4.60
2023-01-19T08:58:46.666Z,4.60
2023-01-19T09:01:17.293Z,4.70
2023-01-19T09:03:44.587Z,4.70
2023-01-19T09:06:14.536Z,4.70
2023-01-19T09:08:41.573Z,4.80
2023-01-19T09:11:12.456Z,4.80
2023-01-19T09:13:40.008Z,4.90
2023-01-19T09:16:08.208Z,4.90
2023-01-19T09:18:36.819Z,5.00
2023-01-19T09:21:05.684Z,5.00
2023-01-19T09:23:35.493Z,5.00
2023-01-19T09:26:04.730Z,5.00
2023-01-19T09:28:31.963Z,5.00
2023-01-19T09:30:58.851Z,5.00
2023-01-19T09:33:27.879Z,5.00
2023-01-19T09:35:56.375Z,5.00
2023-01-19T09:38:24.034Z,5.10
2023-01-19T09:40:56.396Z,5.10
2023-01-19T09:43:43.503Z,5.10
2023-01-19T09:46:34.649Z,5.10
2023-01-19T09:49:06.722Z,5.10
2023-01-19T09:51:38.411Z,5.10
2023-01-19T09:54:15.858Z,5.10
2023-01-19T09:56:48.260Z,5.10
2023-01-19T09:59:25.436Z,5.20
2023-01-19T10:02:00.251Z,5.20
2023-01-19T10:05:02.715Z,5.20
2023-01-19T10:07:53.339Z,5.20
2023-01-19T10:10:21.512Z,5.10
2023-01-19T10:13:06.759Z,5.10
2023-01-19T10:15:48.677Z,5.20
2023-01-19T10:18:31.459Z,5.20
2023-01-19T10:21:17.061Z,5.10
2023-01-19T10:23:46.702Z,5.20
2023-01-19T10:26:17.879Z,5.20
2023-01-19T10:28:47.926Z,5.20
2023-01-19T10:31:17.177Z,5.30
2023-01-19T10:33:45.431Z,5.30
2023-01-19T10:36:22.166Z,5.30
2023-01-19T10:38:49.219Z,5.30
2023-01-19T10:41:26.171Z,5.40
2023-01-19T10:44:02.873Z,5.40
2023-01-19T10:46:48.014Z,5.40
2023-01-19T10:49:50.507Z,5.40
2023-01-19T10:52:36.967Z,5.40
2023-01-19T10:55:10.566Z,5.50
2023-01-19T10:57:43.637Z,5.50
2023-01-19T11:00:30.364Z,5.50
2023-01-19T11:02:57.215Z,5.50
2023-01-19T11:05:35.478Z,5.50
2023-01-19T11:08:25.358Z,5.60
2023-01-19T11:10:56.621Z,5.60
2023-01-19T11:13:23.309Z,5.60
2023-01-19T11:15:57.519Z,5.60
2023-01-19T11:18:39.237Z,5.60
2023-01-19T11:21:17.247Z,5.60
2023-01-19T11:23:51.284Z,5.60
2023-01-19T11:26:29.114Z,5.60
2023-01-19T11:28:57.253Z,5.70
2023-01-19T11:31:29.962Z,5.70
2023-01-19T11:34:02.626Z,5.70
2023-01-19T11:36:32.207Z,5.70
2023-01-19T11:39:13.480Z,5.70
2023-01-19T11:41:49.327Z,5.80
2023-01-19T11:44:24.035Z,5.80
2023-01-19T11:46:56.016Z,5.90
2023-01-19T11:49:41.386Z,5.90
2023-01-19T11:52:27.731Z,6.00
2023-01-19T11:55:17.671Z,6.00
2023-01-19T11:57:49.497Z,6.00
2023-01-19T12:00:28.983Z,6.00
2023-01-19T12:03:22.272Z,6.10
2023-01-19T12:05:52.537Z,6.10
2023-01-19T12:08:24.383Z,6.20
2023-01-19T12:10:55.383Z,6.20
2023-01-19T12:13:24.309Z,6.30
2023-01-19T12:15:57.979Z,6.30
2023-01-19T12:18:30.187Z,6.40
2023-01-19T12:20:58.828Z,6.40
2023-01-19T12:23:30.226Z,6.50
2023-01-19T12:26:24.973Z,6.50
2023-01-19T12:28:52.620Z,6.50
2023-01-19T12:31:22.140Z,6.60
2023-01-19T12:33:51.008Z,6.60
2023-01-19T12:36:30.761Z,6.60
2023-01-19T12:39:01.683Z,6.60
2023-01-19T12:41:31.183Z,6.60
2023-01-19T12:44:16.020Z,6.60
2023-01-19T12:46:57.517Z,6.70
2023-01-19T12:49:27.672Z,6.70
2023-01-19T12:52:19.673Z,6.70
2023-01-19T12:55:00.852Z,6.60
2023-01-19T12:57:49.152Z,6.70
2023-01-19T13:00:22.523Z,6.60
2023-01-19T13:02:57.426Z,6.70
2023-01-19T13:05:39.214Z,6.70
2023-01-19T13:08:06.374Z,6.80
2023-01-19T13:11:18.669Z,6.80
2023-01-19T13:14:05.271Z,6.80
2023-01-19T13:16:42.248Z,6.80
2023-01-19T13:19:14.445Z,6.80
2023-01-19T13:21:50.513Z,6.80
2023-01-19T13:28:01.821Z,6.80
2023-01-19T13:30:30.212Z,6.80
2023-01-19T13:33:11.240Z,6.90
2023-01-19T13:35:37.933Z,6.90
2023-01-19T13:38:06.517Z,6.90
2023-01-19T13:40:41.846Z,6.90
2023-01-19T13:43:18.977Z,6.90
2023-01-19T13:45:53.134Z,6.90
2023-01-19T13:48:25.498Z,6.90
2023-01-19T13:51:05.298Z,6.90
2023-01-19T13:53:33.337Z,7.00
2023-01-19T13:56:14.985Z,7.00
2023-01-19T13:58:41.727Z,6.90
2023-01-19T14:01:21.846Z,6.90
2023-01-19T14:03:55.605Z,6.90
2023-01-19T14:06:31.243Z,6.90
2023-01-19T14:09:18.376Z,6.90
2023-01-19T14:12:08.230Z,6.90
2023-01-19T14:14:35.065Z,6.90
2023-01-19T14:17:03.347Z,6.90
2023-01-19T14:19:30.216Z,6.90
2023-01-19T14:22:05.719Z,7.00
2023-01-19T14:24:33.242Z,7.00
2023-01-19T14:27:24.311Z,7.00
2023-01-19T14:29:54.856Z,7.00
2023-01-19T14:32:22.809Z,7.00
2023-01-19T14:35:17.196Z,7.00
2023-01-19T14:37:51.554Z,7.00
2023-01-19T14:40:24.593Z,7.00
2023-01-19T14:43:03.321Z,7.00
2023-01-19T14:45:37.431Z,7.00
2023-01-19T14:48:05.873Z,7.00
2023-01-19T14:50:42.816Z,7.00
2023-01-19T14:53:26.568Z,7.00
2023-01-19T14:56:03.538Z,7.00
2023-01-19T14:58:37.524Z,7.00
2023-01-19T15:01:05.184Z,7.00
2023-01-19T15:03:44.151Z,7.00
2023-01-19T15:06:17.407Z,7.00
2023-01-19T15:08:47.062Z,7.00
2023-01-19T15:11:41.794Z,7.00
2023-01-19T15:14:11.565Z,7.00
2023-01-19T15:16:38.319Z,7.00
2023-01-19T15:19:05.061Z,7.00
2023-01-19T15:21:31.791Z,7.00
2023-01-19T15:23:59.745Z,7.00
2023-01-19T15:26:27.144Z,7.00
2023-01-19T15:28:56.840Z,7.00
2023-01-19T15:31:30.513Z,7.00
2023-01-19T15:33:57.531Z,7.00
2023-01-19T15:36:25.789Z,7.00
2023-01-19T15:38:54.096Z,7.00
2023-01-19T15:41:29.978Z,7.00
2023-01-19T15:43:57.570Z,7.00
2023-01-19T15:46:25.782Z,7.00
2023-01-19T15:48:54.033Z,7.00
2023-01-19T15:51:25.840Z,7.00
2023-01-19T15:53:55.561Z,7.00
2023-01-19T15:56:27.667Z,7.00
2023-01-19T15:58:55.058Z,7.00
2023-01-19T16:01:33.686Z,7.00
2023-01-19T16:04:03.080Z,7.00
2023-01-19T16:06:32.059Z,7.00
2023-01-19T16:08:59.792Z,6.90
2023-01-19T16:11:29.182Z,6.90
2023-01-19T16:13:56.080Z,6.90
2023-01-19T16:16:24.519Z,6.90
2023-01-19T16:18:51.826Z,6.80
2023-01-19T16:21:19.079Z,6.80
2023-01-19T16:23:46.113Z,6.80
2023-01-19T16:26:34.868Z,6.80
2023-01-19T16:29:10.817Z,6.80
2023-01-19T16:31:40.265Z,6.80
2023-01-19T16:34:07.815Z,6.80
2023-01-19T16:36:39.039Z,6.80
2023-01-19T16:39:08.650Z,6.80
2023-01-19T16:41:36.222Z,6.80
2023-01-19T16:44:04.428Z,6.80
2023-01-19T16:46:35.223Z,6.80
2023-01-19T16:49:07.717Z,6.80
2023-01-19T16:51:34.653Z,6.70
2023-01-19T16:54:02.429Z,6.80
2023-01-19T16:56:30.234Z,6.80
2023-01-19T16:58:59.866Z,7.10
2023-01-19T17:01:28.783Z,7.10
2023-01-19T17:03:56.441Z,7.10
2023-01-19T17:06:24.636Z,7.20
2023-01-19T17:08:52.291Z,7.10
2023-01-19T17:11:21.667Z,7.00
2023-01-19T17:13:56.299Z,7.00
2023-01-19T17:16:27.340Z,7.00
2023-01-19T17:18:56.039Z,6.90
2023-01-19T17:21:22.864Z,6.80
2023-01-19T17:23:52.250Z,6.70
2023-01-19T17:26:19.277Z,6.70
2023-01-19T17:28:46.835Z,6.70
2023-01-19T17:31:17.821Z,6.60
2023-01-19T17:33:46.899Z,6.60
2023-01-19T17:36:16.553Z,6.60
2023-01-19T17:38:43.330Z,6.60
2023-01-19T17:41:25.084Z,6.60
2023-01-19T17:43:54.941Z,6.50
2023-01-19T17:46:27.075Z,6.50
2023-01-19T17:49:00.117Z,6.50
2023-01-19T17:51:27.568Z,6.50
2023-01-19T17:53:56.537Z,6.50
2023-01-19T17:56:29.908Z,6.50
2023-01-19T17:58:58.123Z,6.40
2023-01-19T18:01:31.192Z,6.50
2023-01-19T18:03:59.266Z,6.40
2023-01-19T18:06:26.652Z,6.40
2023-01-19T18:08:54.104Z,6.40
2023-01-19T18:11:21.623Z,6.30
2023-01-19T18:13:49.864Z,6.30
2023-01-19T18:16:21.391Z,6.30
2023-01-19T18:18:49.775Z,6.20
2023-01-19T18:21:17.416Z,6.20
2023-01-19T18:23:45.198Z,6.10
2023-01-19T18:26:22.490Z,6.00
2023-01-19T18:28:49.644Z,6.00
2023-01-19T18:31:19.462Z,5.90
2023-01-19T18:33:48.144Z,5.80
2023-01-19T18:36:18.331Z,5.80
2023-01-19T18:38:46.901Z,5.80
2023-01-19T18:41:18.206Z,5.80
2023-01-19T18:43:46.562Z,5.80
2023-01-19T18:46:13.788Z,5.80
2023-01-19T18:48:40.675Z,5.80
2023-01-19T18:51:09.371Z,5.70
2023-01-19T18:53:36.994Z,5.70
2023-01-19T18:56:07.518Z,5.70
2023-01-19T18:58:38.521Z,5.70
2023-01-19T19:01:16.451Z,5.70
2023-01-19T19:03:43.210Z,5.70
2023-01-19T19:06:09.949Z,5.70
2023-01-19T19:08:36.618Z,5.70
2023-01-19T19:11:07.254Z,5.60
2023-01-19T19:13:34.014Z,5.60
2023-01-19T19:16:09.361Z,5.60
2023-01-19T19:18:37.756Z,5.60
2023-01-19T19:21:11.068Z,5.60
2023-01-19T19:23:38.185Z,5.60
2023-01-19T19:26:07.530Z,5.60
2023-01-19T19:28:37.592Z,5.60
2023-01-19T19:31:10.768Z,5.60
2023-01-19T19:33:40.248Z,5.60
2023-01-19T19:36:09.443Z,5.60
2023-01-19T19:38:36.913Z,5.60
2023-01-19T19:41:08.533Z,5.60
2023-01-19T19:43:36.245Z,5.60
2023-01-19T19:46:07.252Z,5.60
2023-01-19T19:48:38.874Z,5.60
2023-01-19T19:51:19.344Z,5.50
2023-01-19T19:53:49.060Z,5.50
2023-01-19T19:56:22.727Z,5.50
2023-01-19T19:58:50.766Z,5.50
2023-01-19T20:01:19.905Z,5.50
2023-01-19T20:03:47.030Z,5.50
2023-01-19T20:06:22.517Z,5.50
2023-01-19T20:08:51.014Z,5.40
2023-01-19T20:11:22.790Z,5.50
2023-01-19T20:13:50.786Z,5.40
2023-01-19T20:16:19.523Z,5.40
2023-01-19T20:18:56.662Z,5.40
2023-01-19T20:21:27.519Z,5.40
2023-01-19T20:23:59.422Z,5.40
2023-01-19T20:26:30.134Z,5.40
2023-01-19T20:29:03.085Z,5.40
2023-01-19T20:31:32.414Z,5.30
2023-01-19T20:34:01.055Z,5.30
2023-01-19T20:36:29.339Z,5.30
2023-01-19T20:38:57.329Z,5.30
2023-01-19T20:41:24.937Z,5.30
2023-01-19T20:43:52.164Z,5.30
2023-01-19T20:46:19.286Z,5.40
2023-01-19T20:48:50.824Z,5.40
2023-01-19T20:51:19.092Z,5.40
2023-01-19T20:53:47.531Z,5.40
2023-01-19T20:56:15.085Z,5.40
2023-01-19T20:58:42.561Z,5.40
2023-01-19T21:01:10.414Z,5.50
2023-01-19T21:03:37.181Z,5.40
2023-01-19T21:06:04.009Z,5.40
2023-01-19T21:08:30.743Z,5.40
2023-01-19T21:10:58.745Z,5.40
2023-01-19T21:13:27.155Z,5.40
2023-01-19T21:15:54.163Z,5.50
2023-01-19T21:18:20.982Z,5.50
2023-01-19T21:20:49.029Z,5.40
2023-01-19T21:23:19.943Z,5.50
2023-01-19T21:25:51.247Z,5.40
2023-01-19T21:28:20.633Z,5.40
2023-01-19T21:30:49.309Z,5.40
2023-01-19T21:33:16.971Z,5.50
2023-01-19T21:35:52.086Z,5.50
2023-01-19T21:38:20.529Z,5.50
2023-01-19T21:40:47.830Z,5.50
2023-01-19T21:43:14.996Z,5.50
2023-01-19T21:45:43.191Z,5.40
2023-01-19T21:48:11.328Z,5.50
2023-01-19T21:50:38.962Z,5.40
2023-01-19T21:53:07.830Z,5.40
2023-01-19T21:55:34.549Z,5.40
2023-01-19T21:58:01.264Z,5.40
2023-01-19T22:00:31.767Z,5.60
2023-01-19T22:03:04.228Z,5.70
2023-01-19T22:05:36.563Z,5.70
2023-01-19T22:08:04.172Z,5.70
2023-01-19T22:10:30.826Z,5.70
2023-01-19T22:12:57.548Z,5.70
2023-01-19T22:15:24.255Z,5.70
2023-01-19T22:17:50.959Z,5.70
2023-01-19T22:20:17.703Z,5.70
2023-01-19T22:22:44.409Z,5.60
2023-01-19T22:25:11.431Z,5.60
2023-01-19T22:27:38.852Z,5.60
2023-01-19T22:30:06.403Z,5.50
2023-01-19T22:32:33.137Z,5.40
2023-01-19T22:34:59.824Z,5.40
2023-01-19T22:37:27.816Z,5.40
2023-01-19T22:39:54.617Z,5.40
2023-01-19T22:42:21.326Z,5.40
2023-01-19T22:44:48.048Z,5.40
2023-01-19T22:47:14.711Z,5.50
2023-01-19T22:49:41.582Z,5.50
2023-01-19T22:52:11.414Z,5.50
2023-01-19T22:54:39.586Z,5.50
2023-01-19T22:57:22.739Z,5.40
2023-01-19T22:59:49.498Z,5.50
2023-01-19T23:02:16.386Z,5.50
2023-01-19T23:04:44.583Z,5.40
2023-01-19T23:07:11.395Z,5.40
2023-01-19T23:09:38.455Z,5.40
2023-01-19T23:12:05.426Z,5.40
2023-01-19T23:14:32.389Z,5.40
2023-01-19T23:16:59.258Z,5.40
2023-01-19T23:19:26.227Z,5.40
2023-01-19T23:21:53.212Z,5.30
2023-01-19T23:24:20.035Z,5.10
2023-01-19T23:26:49.826Z,5.30
2023-01-19T23:29:17.383Z,5.30
2023-01-19T23:31:46.681Z,5.30
2023-01-19T23:34:14.490Z,5.30
2023-01-19T23:36:42.297Z,5.30
2023-01-19T23:39:21.154Z,5.40
2023-01-19T23:41:48.849Z,5.30
2023-01-19T23:44:18.121Z,5.30
2023-01-19T23:46:45.203Z,5.30
2023-01-19T23:49:12.781Z,5.30
2023-01-19T23:51:39.793Z,5.30
2023-01-19T23:54:07.115Z,5.30
2023-01-19T23:56:35.873Z,5.30
2023-01-19T23:59:06.047Z,5.30
